Terminal Aerodrome Forecast
Issued by NWS

Current Version | Previous Version | Text Only | Print | Product List | Glossary Off
Versions: 1 2 3 4 5 6 7 8 9 10 11 12 13 14 15 16 17 18 19 20 21 22 23 24 25 26 27 28 29 30 31 32 33 34 35 36 37 38 39 40 41 42 43 44 45 46 47 48 49 50

000
FTUS44 KHGX 221120
TAFIAH
TAF
KIAH 221120Z 2212/2318 VRB02KT 5SM MIFG BR VCSH SCT018 BKN050
     FM221300 36008KT 6SM -RA BR VCTS SCT008 BKN015CB
      TEMPO 2213/2215 36028KT 2SM TSRA
     FM221600 34010G20KT P6SM SCT025 BKN150
     FM221800 34013G23KT P6SM SCT180
     FM230000 34011KT P6SM SKC
     FM230400 34005KT P6SM SKC=

USA.gov is the U.S. government's official web portal to all federal, state and local government web resources and services.